PWSweather.com
Personal Weather Stations
Station Observations
PALIDDU
BagheriaIT 90011

BagheriaIT 90011

Lat: 38.0771377, Lon: 13.5044022

Elevation: 289

Station Type: WS-1080

http://meteo40.altervista.org

Latest ConditionsUpdated 6:15:02 AM GMT+01:01 Friday, Jun 23, 2017
Currently Today's Max Today's Min Today's Average
Temperature 76.3°F24.6°C 76.3°F24.6°C 74.7°F23.7°C 75.4°F24.1°C
Dew Point 62.8°F17.1°C 62.8°F17.1°C 52.5°F11.4°C 56.8°F13.8°C
Winds 1.7 mph SW2.7 kmh SW 3.3 mph S5.3 kmh S - 1.5 mph 2.4 kmh
Wind Gusts 2.2 mph3.5 kmh 4.5 mph7.2 kmh - -
Humidity 63% 63% 46% 53%
Pressure 30.11 in1019.6 mb 30.11 in1019.6 mb 30.09 in1019.0 mb -
Hour Temp Dew Point Humidity Winds Wind Gusts Pressure Precip Precip Rate Daily Precip Total
06:15 AM 76.3°F24.6°C 62.8°F17.1°C 63% 1.7 mph SW2.7 kmh SW 2.2 mph3.5 kmh 30.11 in1019.6 mb 0.00 in0.0 mm 0.00 in0.0 mm 0.00 in0.0 mm
06:00 AM 75.7°F24.3°C 57.4°F14.1°C 53% 1.0 mph SW1.6 kmh SW 1.6 mph2.6 kmh 30.11 in1019.6 mb 0.00 in0.0 mm 0.00 in0.0 mm 0.00 in0.0 mm
05:45 AM 75.2°F24.0°C 53.0°F11.7°C 46% 1.5 mph SW2.4 kmh SW 3.1 mph5.0 kmh 30.11 in1019.6 mb 0.00 in0.0 mm 0.00 in0.0 mm 0.00 in0.0 mm
05:30 AM 75.0°F23.9°C 52.9°F11.6°C 46% 1.4 mph SW2.3 kmh SW 2.2 mph3.5 kmh 30.10 in1019.3 mb 0.00 in0.0 mm 0.00 in0.0 mm 0.00 in0.0 mm
05:15 AM 75.2°F24.0°C 53.0°F11.7°C 46% 0.9 mph SW1.4 kmh SW 2.2 mph3.5 kmh 30.10 in1019.3 mb 0.00 in0.0 mm 0.00 in0.0 mm 0.00 in0.0 mm
05:00 AM 75.0°F23.9°C 52.9°F11.6°C 46% 0.9 mph SW1.4 kmh SW 1.6 mph2.6 kmh 30.10 in1019.3 mb 0.00 in0.0 mm 0.00 in0.0 mm 0.00 in0.0 mm
04:45 AM 74.7°F23.7°C 52.5°F11.4°C 46% 0.8 mph SW1.3 kmh SW 1.6 mph2.6 kmh 30.10 in1019.3 mb 0.00 in0.0 mm 0.00 in0.0 mm 0.00 in0.0 mm
04:30 AM 75.0°F23.9°C 53.5°F11.9°C 47% 1.4 mph WSW2.3 kmh WSW 3.1 mph5.0 kmh 30.09 in1019.0 mb 0.00 in0.0 mm 0.00 in0.0 mm 0.00 in0.0 mm
04:15 AM 75.4°F24.1°C 53.8°F12.1°C 47% 0.6 mph WSW1.0 kmh WSW 1.6 mph2.6 kmh 30.09 in1019.0 mb 0.00 in0.0 mm 0.00 in0.0 mm 0.00 in0.0 mm
04:00 AM 75.4°F24.1°C 54.4°F12.4°C 48% 0.4 mph WSW0.6 kmh WSW 1.6 mph2.6 kmh 30.09 in1019.0 mb 0.00 in0.0 mm 0.00 in0.0 mm 0.00 in0.0 mm
03:45 AM 75.0°F23.9°C 54.6°F12.6°C 49% 1.2 mph SW1.9 kmh SW 2.2 mph3.5 kmh 30.09 in1019.0 mb 0.00 in0.0 mm 0.00 in0.0 mm 0.00 in0.0 mm
03:30 AM 75.0°F23.9°C 55.2°F12.9°C 50% 0.9 mph SW1.4 kmh SW 1.6 mph2.6 kmh 30.09 in1019.0 mb 0.00 in0.0 mm 0.00 in0.0 mm 0.00 in0.0 mm
03:15 AM 75.0°F23.9°C 55.2°F12.9°C 50% 1.5 mph SW2.4 kmh SW 2.2 mph3.5 kmh 30.09 in1019.0 mb 0.00 in0.0 mm 0.00 in0.0 mm 0.00 in0.0 mm
03:00 AM 75.2°F24.0°C 54.8°F12.7°C 49% 1.3 mph S2.1 kmh S 2.2 mph3.5 kmh 30.09 in1019.0 mb 0.00 in0.0 mm 0.00 in0.0 mm 0.00 in0.0 mm
02:45 AM 75.2°F24.0°C 54.8°F12.7°C 49% 1.3 mph S2.1 kmh S 2.2 mph3.5 kmh 30.09 in1019.0 mb 0.00 in0.0 mm 0.00 in0.0 mm 0.00 in0.0 mm
02:30 AM 75.4°F24.1°C 56.6°F13.7°C 52% 0.9 mph S1.4 kmh S 2.2 mph3.5 kmh 30.09 in1019.0 mb 0.00 in0.0 mm 0.00 in0.0 mm 0.00 in0.0 mm
02:15 AM 75.4°F24.1°C 57.1°F13.9°C 53% 2.4 mph S3.9 kmh S 3.1 mph5.0 kmh 30.09 in1019.0 mb 0.00 in0.0 mm 0.00 in0.0 mm 0.00 in0.0 mm
02:00 AM 75.4°F24.1°C 57.6°F14.2°C 54% 1.4 mph S2.3 kmh S 3.1 mph5.0 kmh 30.09 in1019.0 mb 0.00 in0.0 mm 0.00 in0.0 mm 0.00 in0.0 mm
01:45 AM 75.4°F24.1°C 58.6°F14.8°C 56% 2.2 mph S3.5 kmh S 3.8 mph6.1 kmh 30.09 in1019.0 mb 0.00 in0.0 mm 0.00 in0.0 mm 0.00 in0.0 mm
01:30 AM 75.9°F24.4°C 59.6°F15.3°C 57% 2.5 mph S4.0 kmh S 3.8 mph6.1 kmh 30.09 in1019.0 mb 0.00 in0.0 mm 0.00 in0.0 mm 0.00 in0.0 mm
01:15 AM 75.9°F24.4°C 59.6°F15.3°C 57% 1.8 mph S2.9 kmh S 3.1 mph5.0 kmh 30.10 in1019.3 mb 0.00 in0.0 mm 0.00 in0.0 mm 0.00 in0.0 mm
01:00 AM 75.7°F24.3°C 59.9°F15.5°C 58% 2.2 mph S3.5 kmh S 3.8 mph6.1 kmh 30.09 in1019.0 mb 0.00 in0.0 mm 0.00 in0.0 mm 0.00 in0.0 mm
12:45 AM 75.9°F24.4°C 60.6°F15.9°C 59% 1.4 mph S2.3 kmh S 2.2 mph3.5 kmh 30.10 in1019.3 mb 0.00 in0.0 mm 0.00 in0.0 mm 0.00 in0.0 mm
12:30 AM 75.7°F24.3°C 60.9°F16.1°C 60% 3.1 mph S5.0 kmh S 4.5 mph7.2 kmh 30.10 in1019.3 mb 0.00 in0.0 mm 0.00 in0.0 mm 0.00 in0.0 mm
12:15 AM 75.7°F24.3°C 61.8°F16.6°C 62% 2.0 mph S3.2 kmh S 3.8 mph6.1 kmh 30.11 in1019.6 mb 0.00 in0.0 mm 0.00 in0.0 mm 0.00 in0.0 mm
12:00 AM 75.9°F24.4°C 62.5°F16.9°C 63% 3.3 mph S5.3 kmh S 4.5 mph7.2 kmh 30.11 in1019.6 mb 0.00 in0.0 mm 0.00 in0.0 mm 0.00 in0.0 mm